Terminal Aerodrome Forecast
Issued by NWS

Home | Current Version | Previous Version | Graphics & Text | Print | Product List | Glossary On
Versions: 1 2 3 4 5 6 7 8 9 10 11 12 13 14
000
FTUS43 KBIS 261125
TAFJMS
TAF
KJMS 261125Z 2612/2712 18005KT P6SM SKC
     FM261700 16009KT P6SM FEW040
     FM270300 13008KT P6SM SCT040=

USA.gov is the U.S. government's official web portal to all federal, state and local government web resources and services.